createdAt,value
2017-06-10T00:00:47.987Z,16.40
2017-06-10T00:03:15.495Z,17.83
2017-06-10T00:05:43.063Z,18.03
2017-06-10T00:08:10.579Z,16.27
2017-06-10T00:10:38.098Z,14.00
2017-06-10T00:13:07.313Z,14.00
2017-06-10T00:15:34.840Z,18.33
2017-06-10T00:18:02.360Z,14.73
2017-06-10T00:20:29.978Z,14.70
2017-06-10T00:22:57.547Z,17.93
2017-06-10T00:25:25.056Z,19.17
2017-06-10T00:27:52.663Z,18.80
2017-06-10T00:30:20.171Z,24.57
2017-06-10T00:32:47.676Z,24.90
2017-06-10T00:35:15.272Z,24.97
2017-06-10T00:37:42.791Z,24.40
2017-06-10T00:40:10.542Z,28.87
2017-06-10T00:42:38.408Z,23.80
2017-06-10T00:45:05.932Z,41.40
2017-06-10T00:47:33.451Z,25.20
2017-06-10T00:50:01.041Z,20.73
2017-06-10T00:52:28.620Z,26.60
2017-06-10T00:54:56.132Z,20.50
2017-06-10T00:57:23.679Z,23.90
2017-06-10T00:59:51.187Z,20.77
2017-06-10T01:02:18.695Z,17.57
2017-06-10T01:04:46.251Z,20.47
2017-06-10T01:07:13.765Z,20.53
2017-06-10T01:09:41.316Z,19.43
2017-06-10T01:12:08.883Z,20.13
2017-06-10T01:14:36.407Z,18.27
2017-06-10T01:17:03.959Z,16.90
2017-06-10T01:19:31.644Z,17.10
2017-06-10T01:21:59.167Z,15.03
2017-06-10T01:24:26.675Z,19.23
2017-06-10T01:26:54.307Z,16.70
2017-06-10T01:29:21.816Z,16.67
2017-06-10T01:31:49.343Z,15.27
2017-06-10T01:34:16.903Z,17.23
2017-06-10T01:36:44.508Z,15.50
2017-06-10T01:39:12.023Z,16.97
2017-06-10T01:41:39.914Z,16.50
2017-06-10T01:44:07.490Z,15.67
2017-06-10T01:46:35.160Z,21.63
2017-06-10T01:49:02.707Z,18.40
2017-06-10T01:51:30.416Z,16.80
2017-06-10T01:53:57.987Z,15.77
2017-06-10T01:56:25.804Z,16.47
2017-06-10T01:58:53.314Z,15.90
2017-06-10T02:01:20.832Z,17.80
2017-06-10T02:03:48.412Z,17.40
2017-06-10T02:06:15.938Z,19.77
2017-06-10T02:08:43.499Z,20.97
2017-06-10T02:11:11.070Z,18.67
2017-06-10T02:13:38.583Z,35.67
2017-06-10T02:16:06.096Z,36.90
2017-06-10T02:18:33.931Z,29.47
2017-06-10T02:21:01.441Z,28.07
2017-06-10T02:23:28.953Z,22.57
2017-06-10T02:25:56.575Z,21.50
2017-06-10T02:28:24.087Z,25.60
2017-06-10T02:30:51.607Z,22.10
2017-06-10T02:33:19.171Z,20.77
2017-06-10T02:35:46.696Z,20.20
2017-06-10T02:38:14.242Z,24.07
2017-06-10T02:40:41.808Z,26.73
2017-06-10T02:43:09.352Z,22.17
2017-06-10T02:45:36.867Z,19.20
2017-06-10T02:48:04.463Z,21.00
2017-06-10T02:50:31.971Z,15.80
2017-06-10T02:52:59.474Z,20.60
2017-06-10T02:55:27.276Z,24.27
2017-06-10T02:57:54.795Z,25.37
2017-06-10T03:00:22.487Z,39.13
2017-06-10T03:02:50.963Z,35.90
2017-06-10T03:05:18.476Z,31.47
2017-06-10T03:07:46.012Z,27.43
2017-06-10T03:10:13.847Z,39.80
2017-06-10T03:12:41.359Z,37.27
2017-06-10T03:15:08.875Z,30.03
2017-06-10T03:17:36.821Z,34.40
2017-06-10T03:20:04.340Z,43.47
2017-06-10T03:22:31.855Z,40.03
2017-06-10T03:24:59.767Z,51.00
2017-06-10T03:27:27.281Z,41.80
2017-06-10T03:29:54.794Z,39.90
2017-06-10T03:32:22.367Z,37.67
2017-06-10T03:34:49.878Z,38.73
2017-06-10T03:37:17.391Z,29.83
2017-06-10T03:39:44.951Z,33.03
2017-06-10T03:42:12.466Z,34.87
2017-06-10T03:44:39.971Z,32.07
2017-06-10T03:47:07.935Z,43.07
2017-06-10T03:49:35.447Z,35.10
2017-06-10T03:52:02.971Z,32.43
2017-06-10T03:54:30.550Z,48.70
2017-06-10T03:56:58.067Z,48.00
2017-06-10T03:59:25.588Z,31.30
2017-06-10T04:01:53.455Z,35.50
2017-06-10T04:04:20.995Z,25.43
2017-06-10T04:06:48.504Z,23.63
2017-06-10T04:09:16.060Z,17.63
2017-06-10T04:11:43.562Z,17.20
2017-06-10T04:14:11.119Z,17.47
2017-06-10T04:16:38.986Z,17.37
2017-06-10T04:19:06.564Z,17.87
2017-06-10T04:21:34.082Z,18.20
2017-06-10T04:24:01.666Z,20.60
2017-06-10T04:26:29.171Z,25.97
2017-06-10T04:28:56.691Z,26.23
2017-06-10T04:31:24.295Z,35.77
2017-06-10T04:33:51.804Z,23.03
2017-06-10T04:36:19.319Z,23.87
2017-06-10T04:38:46.876Z,19.33
2017-06-10T04:41:14.545Z,20.33
2017-06-10T04:43:42.059Z,19.27
2017-06-10T04:46:09.984Z,21.27
2017-06-10T04:48:37.581Z,21.73
2017-06-10T04:51:05.126Z,18.50
2017-06-10T04:53:32.992Z,15.10
2017-06-10T04:56:00.507Z,15.60
2017-06-10T04:58:28.011Z,18.17
2017-06-10T05:00:55.932Z,16.33
2017-06-10T05:03:23.441Z,14.20
2017-06-10T05:05:50.964Z,14.37
2017-06-10T05:08:18.624Z,11.50
2017-06-10T05:10:46.204Z,9.07
2017-06-10T05:13:13.727Z,8.87
2017-06-10T05:15:41.451Z,8.40
2017-06-10T05:18:08.951Z,8.50
2017-06-10T05:20:36.456Z,9.40
2017-06-10T05:23:04.023Z,9.40
2017-06-10T05:25:31.570Z,10.67
2017-06-10T05:27:59.083Z,9.00
2017-06-10T05:30:26.897Z,10.20
2017-06-10T05:32:54.411Z,11.10
2017-06-10T05:35:21.931Z,14.40
2017-06-10T05:37:49.853Z,13.43
2017-06-10T05:40:17.375Z,18.27
2017-06-10T05:42:44.923Z,10.00
2017-06-10T05:45:12.535Z,10.13
2017-06-10T05:47:40.099Z,12.87
2017-06-10T05:50:09.916Z,10.83
2017-06-10T05:52:38.843Z,10.50
2017-06-10T05:55:06.705Z,12.93
2017-06-10T05:57:34.255Z,20.10
2017-06-10T06:00:01.789Z,24.90
2017-06-10T06:02:30.034Z,22.60
2017-06-10T06:04:57.549Z,13.40
2017-06-10T06:07:25.119Z,12.07
2017-06-10T06:09:53.165Z,10.27
2017-06-10T06:12:20.711Z,12.70
2017-06-10T06:14:48.858Z,12.40
2017-06-10T06:17:16.710Z,14.00
2017-06-10T06:19:44.439Z,16.00
2017-06-10T06:22:11.951Z,12.87
2017-06-10T06:24:39.565Z,11.40
2017-06-10T06:27:07.097Z,12.00
2017-06-10T06:29:34.615Z,57.10
2017-06-10T06:32:02.219Z,8.70
2017-06-10T06:34:29.801Z,20.80
2017-06-10T06:36:57.304Z,9.43
2017-06-10T06:39:25.159Z,10.10
2017-06-10T06:41:52.691Z,9.57
2017-06-10T06:44:20.212Z,23.10
2017-06-10T06:46:47.777Z,9.00
2017-06-10T06:49:15.345Z,48.47
2017-06-10T06:51:42.926Z,43.77
2017-06-10T06:54:10.493Z,11.03
2017-06-10T07:29:02.903Z,8.07
2017-06-10T07:31:30.632Z,7.97
2017-06-10T07:33:58.267Z,6.53
2017-06-10T07:36:25.921Z,6.80
2017-06-10T07:38:53.658Z,8.27
2017-06-10T07:41:21.370Z,8.57
2017-06-10T07:43:49.043Z,8.10
2017-06-10T07:46:16.719Z,7.67
2017-06-10T07:48:44.443Z,7.50
2017-06-10T07:51:12.340Z,6.97
2017-06-10T07:53:39.970Z,5.53
2017-06-10T07:56:07.540Z,6.10
2017-06-10T07:58:35.278Z,6.00
2017-06-10T08:01:02.889Z,6.03
2017-06-10T08:03:30.444Z,8.30
2017-06-10T08:05:58.354Z,7.60
2017-06-10T08:08:25.917Z,7.40
2017-06-10T08:10:53.642Z,6.70
2017-06-10T08:13:21.302Z,6.60
2017-06-10T08:15:48.870Z,6.77
2017-06-10T08:18:16.490Z,6.77
2017-06-10T08:20:44.112Z,6.07
2017-06-10T08:23:11.666Z,5.80
2017-06-10T08:25:39.210Z,5.13
2017-06-10T08:28:08.064Z,5.47
2017-06-10T08:30:35.661Z,5.43
2017-06-10T08:33:03.246Z,6.40
2017-06-10T08:35:30.876Z,4.77
2017-06-10T08:37:58.488Z,6.43
2017-06-10T08:40:49.733Z,5.17
2017-06-10T08:43:17.279Z,5.20
2017-06-10T08:45:44.819Z,4.43
2017-06-10T08:48:12.616Z,4.80
2017-06-10T08:50:40.165Z,5.47
2017-06-10T08:53:07.708Z,4.17
2017-06-10T08:55:35.357Z,4.03
2017-06-10T08:58:02.985Z,3.90
2017-06-10T09:00:30.591Z,3.80
2017-06-10T09:02:58.475Z,3.50
2017-06-10T09:05:26.026Z,4.43
2017-06-10T09:07:53.579Z,3.90
2017-06-10T09:10:21.172Z,2.60
2017-06-10T09:12:48.801Z,2.87
2017-06-10T09:15:16.337Z,2.67
2017-06-10T09:17:43.916Z,2.90
2017-06-10T09:20:11.528Z,3.37
2017-06-10T09:22:39.080Z,3.20
2017-06-10T09:25:12.341Z,4.57
2017-06-10T09:27:43.720Z,3.00
2017-06-10T09:33:16.562Z,3.60
2017-06-10T09:41:24.673Z,2.87
2017-06-10T09:43:56.895Z,3.07
2017-06-10T09:46:25.604Z,3.43
2017-06-10T09:54:35.130Z,2.80
2017-06-10T09:59:56.534Z,2.33
2017-06-10T10:02:24.183Z,3.17
2017-06-10T10:05:11.390Z,2.77
2017-06-10T10:07:39.171Z,2.70
2017-06-10T10:10:06.896Z,2.50
2017-06-10T10:12:34.773Z,2.70
2017-06-10T10:15:02.590Z,3.00
2017-06-10T10:17:30.395Z,3.30
2017-06-10T10:19:59.662Z,3.60
2017-06-10T10:22:31.742Z,3.37
2017-06-10T10:24:59.861Z,2.67
2017-06-10T10:27:27.588Z,3.20
2017-06-10T10:29:55.389Z,2.90
2017-06-10T10:32:25.698Z,4.17
2017-06-10T10:34:56.601Z,3.00
2017-06-10T10:37:24.476Z,3.53
2017-06-10T10:42:56.420Z,3.50
2017-06-10T10:45:32.291Z,3.00
2017-06-10T10:48:01.087Z,2.80
2017-06-10T10:50:29.495Z,3.20
2017-06-10T10:53:12.189Z,3.50
2017-06-10T10:55:41.187Z,3.20
2017-06-10T10:58:10.266Z,3.23
2017-06-10T11:00:42.817Z,2.50
2017-06-10T11:03:11.410Z,3.03
2017-06-10T11:05:39.389Z,3.40
2017-06-10T11:08:13.765Z,2.83
2017-06-10T11:10:44.891Z,3.00
2017-06-10T11:13:21.989Z,2.97
2017-06-10T11:15:55.964Z,3.70
2017-06-10T11:18:24.196Z,3.40
2017-06-10T11:20:51.858Z,3.63
2017-06-10T11:26:16.344Z,3.40
2017-06-10T11:28:44.243Z,3.37
2017-06-10T11:31:12.002Z,3.23
2017-06-10T11:33:42.692Z,3.23
2017-06-10T11:36:11.254Z,3.57
2017-06-10T11:38:46.696Z,2.90
2017-06-10T11:41:14.667Z,2.67
2017-06-10T11:43:46.254Z,2.97
2017-06-10T11:46:15.614Z,2.77
2017-06-10T11:48:43.608Z,3.20
2017-06-10T11:51:11.945Z,2.87
2017-06-10T11:53:40.150Z,2.87
2017-06-10T11:56:12.731Z,3.50
2017-06-10T11:58:40.465Z,3.63
2017-06-10T12:01:08.462Z,3.53
2017-06-10T12:09:41.830Z,3.00
2017-06-10T12:12:09.424Z,3.00
2017-06-10T12:14:37.787Z,3.07
2017-06-10T12:17:05.765Z,4.80
2017-06-10T12:19:33.476Z,4.10
2017-06-10T12:22:01.123Z,3.80
2017-06-10T12:24:29.030Z,3.60
2017-06-10T12:26:56.726Z,4.10
2017-06-10T12:29:42.798Z,5.27
2017-06-10T12:32:10.408Z,3.30
2017-06-10T12:34:38.171Z,4.00
2017-06-10T12:37:06.055Z,3.90
2017-06-10T12:39:33.879Z,3.77
2017-06-10T12:42:14.214Z,3.97
2017-06-10T12:44:41.961Z,3.57
2017-06-10T12:47:09.672Z,3.50
2017-06-10T12:49:39.393Z,3.33
2017-06-10T12:52:07.155Z,4.13
2017-06-10T12:54:34.984Z,3.10
2017-06-10T12:57:03.794Z,3.20
2017-06-10T12:59:43.288Z,4.90
2017-06-10T13:25:14.281Z,3.50
2017-06-10T13:27:42.385Z,4.30
2017-06-10T13:30:09.993Z,3.83
2017-06-10T13:32:37.746Z,3.63
2017-06-10T13:35:05.365Z,3.77
2017-06-10T13:37:33.044Z,3.70
2017-06-10T13:40:00.970Z,4.40
2017-06-10T13:42:28.805Z,3.57
2017-06-10T13:44:56.592Z,4.40
2017-06-10T13:47:24.315Z,4.47
2017-06-10T13:49:52.291Z,4.70
2017-06-10T13:52:19.924Z,4.33
2017-06-10T13:54:47.602Z,4.60
2017-06-10T13:57:15.204Z,4.00
2017-06-10T13:59:42.909Z,4.97
2017-06-10T14:02:10.598Z,4.20
2017-06-10T14:10:15.677Z,4.20
2017-06-10T14:12:43.804Z,5.60
2017-06-10T14:15:11.504Z,4.30
2017-06-10T14:17:40.448Z,4.10
2017-06-10T14:20:08.189Z,4.30
2017-06-10T14:22:35.921Z,4.67
2017-06-10T14:25:03.517Z,4.37
2017-06-10T14:27:30.954Z,4.30
2017-06-10T14:29:58.777Z,3.80
2017-06-10T14:32:26.476Z,4.40
2017-06-10T14:34:54.204Z,4.20
2017-06-10T14:37:41.383Z,3.90
2017-06-10T14:40:09.032Z,4.07
2017-06-10T14:42:36.567Z,4.23
2017-06-10T14:45:04.081Z,4.33
2017-06-10T14:47:31.660Z,4.10
2017-06-10T14:49:59.187Z,3.70
2017-06-10T14:52:26.704Z,3.70
2017-06-10T14:54:54.287Z,3.97
2017-06-10T14:57:21.834Z,4.27
2017-06-10T14:59:49.360Z,4.23
2017-06-10T15:02:16.927Z,4.43
2017-06-10T15:04:44.467Z,4.53
2017-06-10T15:07:11.995Z,4.57
2017-06-10T15:09:39.607Z,4.83
2017-06-10T15:12:07.149Z,4.73
2017-06-10T15:14:34.696Z,4.63
2017-06-10T15:17:02.043Z,5.17
2017-06-10T15:19:29.580Z,4.50
2017-06-10T15:21:57.129Z,4.10
2017-06-10T15:24:24.744Z,3.57
2017-06-10T15:26:52.283Z,4.87
2017-06-10T15:29:19.584Z,4.73
2017-06-10T15:31:47.175Z,5.00
2017-06-10T15:34:14.716Z,5.00
2017-06-10T15:36:42.262Z,4.73
2017-06-10T15:39:09.840Z,4.30
2017-06-10T15:41:37.349Z,4.37
2017-06-10T15:44:04.862Z,4.67
2017-06-10T15:46:32.435Z,3.80
2017-06-10T15:48:59.952Z,8.27
2017-06-10T15:51:27.472Z,4.57
2017-06-10T15:53:55.288Z,3.90
2017-06-10T15:56:22.826Z,4.23
2017-06-10T15:58:50.335Z,4.37
2017-06-10T16:01:18.175Z,3.87
2017-06-10T16:03:45.708Z,4.00
2017-06-10T16:06:13.244Z,4.53
2017-06-10T16:08:40.850Z,4.30
2017-06-10T16:11:08.384Z,4.10
2017-06-10T16:13:35.911Z,4.37
2017-06-10T16:16:03.736Z,4.17
2017-06-10T16:18:31.256Z,4.70
2017-06-10T16:20:58.798Z,4.33
2017-06-10T16:23:26.610Z,4.30
2017-06-10T16:25:54.124Z,4.20
2017-06-10T16:28:21.650Z,4.60
2017-06-10T16:30:49.215Z,4.13
2017-06-10T16:33:16.728Z,4.20
2017-06-10T16:35:44.248Z,4.30
2017-06-10T16:38:12.103Z,4.73
2017-06-10T16:40:39.626Z,4.50
2017-06-10T16:43:07.147Z,4.70
2017-06-10T16:45:34.752Z,3.90
2017-06-10T16:48:02.275Z,4.70
2017-06-10T16:50:29.787Z,4.20
2017-06-10T16:52:57.613Z,4.10
2017-06-10T16:55:25.132Z,4.37
2017-06-10T16:57:52.673Z,4.17
2017-06-10T17:00:20.232Z,3.90
2017-06-10T17:02:47.745Z,5.10
2017-06-10T17:05:15.276Z,4.20
2017-06-10T17:07:42.890Z,4.07
2017-06-10T17:10:10.432Z,4.23
2017-06-10T17:12:37.953Z,3.80
2017-06-10T17:15:05.819Z,4.20
2017-06-10T17:17:33.407Z,4.10
2017-06-10T17:20:00.939Z,4.17
2017-06-10T17:22:28.534Z,4.40
2017-06-10T17:24:56.059Z,4.40
2017-06-10T17:27:23.581Z,4.40
2017-06-10T17:29:51.411Z,5.27
2017-06-10T17:32:18.940Z,5.07
2017-06-10T17:34:46.455Z,5.07
2017-06-10T17:37:14.324Z,4.23
2017-06-10T17:39:41.837Z,4.37
2017-06-10T17:42:09.352Z,4.70
2017-06-10T17:44:37.229Z,4.30
2017-06-10T17:47:04.739Z,4.33
2017-06-10T17:49:32.258Z,4.50
2017-06-10T17:51:59.868Z,4.50
2017-06-10T17:54:27.386Z,4.23
2017-06-10T17:56:54.935Z,4.00
2017-06-10T17:59:22.734Z,3.73
2017-06-10T18:01:50.256Z,4.73
2017-06-10T18:04:17.779Z,4.70
2017-06-10T18:06:45.351Z,4.57
2017-06-10T18:09:12.894Z,5.10
2017-06-10T18:11:40.411Z,4.47
2017-06-10T18:14:07.996Z,4.30
2017-06-10T18:16:35.526Z,4.67
2017-06-10T18:19:03.072Z,4.07
2017-06-10T18:21:30.644Z,4.50
2017-06-10T18:23:58.156Z,4.33
2017-06-10T18:26:25.661Z,4.50
2017-06-10T18:28:53.493Z,3.87
2017-06-10T18:31:21.005Z,4.53
2017-06-10T18:33:57.528Z,4.50
2017-06-10T18:36:25.048Z,4.17
2017-06-10T18:38:52.561Z,4.10
2017-06-10T18:41:20.145Z,4.60
2017-06-10T18:43:47.663Z,4.13
2017-06-10T18:46:15.217Z,4.83
2017-06-10T18:48:42.784Z,5.00
2017-06-10T18:51:10.335Z,5.20
2017-06-10T18:53:37.879Z,4.40
2017-06-10T18:56:05.548Z,4.20
2017-06-10T18:58:34.324Z,5.33
2017-06-10T19:01:01.843Z,5.17
2017-06-10T19:03:29.708Z,4.57
2017-06-10T19:05:57.231Z,4.40
2017-06-10T19:08:24.765Z,4.83
2017-06-10T19:10:52.335Z,4.60
2017-06-10T19:13:19.848Z,4.80
2017-06-10T19:15:47.359Z,9.50
2017-06-10T19:18:15.207Z,9.90
2017-06-10T19:20:42.739Z,7.90
2017-06-10T19:23:10.287Z,6.33
2017-06-10T19:25:37.922Z,6.33
2017-06-10T19:28:05.456Z,6.27
2017-06-10T19:30:32.979Z,5.63
2017-06-10T19:33:01.021Z,5.60
2017-06-10T19:35:28.908Z,5.80
2017-06-10T19:37:56.443Z,6.03
2017-06-10T19:40:24.294Z,6.20
2017-06-10T19:42:51.805Z,5.40
2017-06-10T19:45:19.324Z,5.27
2017-06-10T19:47:46.879Z,5.40
2017-06-10T19:50:14.447Z,5.67
2017-06-10T19:52:42.781Z,6.50
2017-06-10T19:55:10.587Z,4.97
2017-06-10T19:57:38.135Z,5.87
2017-06-10T20:00:05.651Z,5.43
2017-06-10T20:02:33.215Z,5.57
2017-06-10T20:05:00.724Z,5.10
2017-06-10T20:07:28.303Z,5.57
2017-06-10T20:09:56.175Z,5.00
2017-06-10T20:12:23.955Z,5.23
2017-06-10T20:14:51.523Z,5.67
2017-06-10T20:17:19.105Z,5.43
2017-06-10T20:19:46.624Z,5.20
2017-06-10T20:25:07.336Z,5.57
2017-06-10T20:27:39.979Z,6.10
2017-06-10T20:30:28.727Z,5.63
2017-06-10T20:32:56.322Z,5.47
2017-06-10T20:35:23.828Z,5.10
2017-06-10T20:37:51.348Z,5.40
2017-06-10T20:40:18.943Z,5.90
2017-06-10T20:42:46.468Z,5.03
2017-06-10T20:45:14.299Z,5.43
2017-06-10T20:47:42.089Z,5.90
2017-06-10T20:50:14.661Z,6.27
2017-06-10T20:52:42.193Z,6.70
2017-06-10T20:55:09.717Z,6.10
2017-06-10T20:57:37.468Z,6.10
2017-06-10T21:00:05.027Z,6.80
2017-06-10T21:02:32.648Z,6.20
2017-06-10T21:05:00.348Z,5.60
2017-06-10T21:07:27.892Z,6.80
2017-06-10T21:10:02.148Z,5.67
2017-06-10T21:12:29.785Z,6.80
2017-06-10T21:14:57.303Z,6.20
2017-06-10T21:17:24.894Z,7.90
2017-06-10T21:19:52.409Z,8.00
2017-06-10T21:22:19.953Z,8.97
2017-06-10T21:27:47.524Z,7.57
2017-06-10T21:30:15.830Z,8.10
2017-06-10T21:32:43.364Z,7.53
2017-06-10T21:35:24.436Z,6.70
2017-06-10T21:37:51.872Z,7.60
2017-06-10T21:40:19.383Z,7.70
2017-06-10T21:45:21.329Z,7.07
2017-06-10T21:47:48.942Z,7.10
2017-06-10T21:50:16.568Z,6.97
2017-06-10T22:45:52.263Z,5.80
2017-06-10T23:03:04.948Z,6.70
2017-06-10T23:19:57.761Z,7.03
2017-06-10T23:22:25.098Z,7.10
2017-06-10T23:24:52.681Z,7.57
2017-06-10T23:27:20.314Z,7.40
2017-06-10T23:29:47.881Z,7.50
2017-06-10T23:32:15.445Z,8.27
2017-06-10T23:34:43.093Z,8.50
2017-06-10T23:37:10.688Z,8.30
2017-06-10T23:39:38.277Z,8.37
2017-06-10T23:42:06.115Z,8.47
2017-06-10T23:44:33.738Z,7.67
2017-06-10T23:47:01.478Z,8.20
2017-06-10T23:49:29.079Z,7.97
2017-06-10T23:51:56.690Z,7.30
2017-06-10T23:54:24.257Z,7.20
2017-06-10T23:56:51.927Z,7.80
2017-06-10T23:59:19.493Z,7.37
